Time;durP1;ratioP1;P1;durP2;ratioP2;P2;SDS_P1;SDS_P2;PMS_P1;PMS_P2;Temp;Humidity;BMP_temperature;BMP_pressure;BME280_temperature;BME280_humidity;BME280_pressure;Samples;Min_cycle;Max_cycle;Signal;HPM_P1;HPM_P2
2021/07/22 00:05:22;;;;;;;10.55;6.85;;;;;;;17.00;66.92;100917.56;20726960;28;20096;-80
2021/07/22 00:15:25;;;;;;;11.65;6.80;;;;;;;16.75;68.08;100911.38;20751266;28;20105;-80
2021/07/22 00:25:26;;;;;;;14.00;6.93;;;;;;;16.70;68.35;100902.69;20738989;28;20085;-81
2021/07/22 00:35:28;;;;;;;15.02;7.68;;;;;;;16.72;68.79;100903.53;20767588;28;20053;-80
2021/07/22 00:45:31;;;;;;;13.55;6.93;;;;;;;16.75;68.16;100892.84;20763718;28;20050;-79
2021/07/22 00:55:33;;;;;;;11.80;6.70;;;;;;;16.53;69.33;100898.84;20748802;28;20081;-81
2021/07/22 01:05:35;;;;;;;11.75;7.30;;;;;;;16.31;69.90;100893.34;20763449;28;20042;-81
2021/07/22 01:15:36;;;;;;;13.23;7.25;;;;;;;16.39;68.98;100890.47;20749190;28;20045;-81
2021/07/22 01:25:38;;;;;;;12.88;7.65;;;;;;;16.31;69.42;100881.91;20771892;28;20499;-80
2021/07/22 01:35:41;;;;;;;13.90;7.97;;;;;;;16.15;70.58;100874.47;20768247;28;20054;-81
2021/07/22 01:45:43;;;;;;;15.45;8.10;;;;;;;16.08;70.62;100872.06;20763695;28;20408;-81
2021/07/22 01:55:45;;;;;;;15.32;8.27;;;;;;;15.99;70.80;100870.56;20762616;28;20046;-81
2021/07/22 02:05:46;;;;;;;18.20;7.75;;;;;;;15.97;70.71;100867.13;20761332;28;20050;-81
2021/07/22 02:15:48;;;;;;;12.57;7.95;;;;;;;15.84;71.22;100866.63;20764259;28;20480;-80
2021/07/22 02:25:51;;;;;;;13.75;8.15;;;;;;;15.91;70.73;100872.59;20745474;28;20042;-81
2021/07/22 02:35:55;;;;;;;13.60;8.18;;;;;;;15.82;70.77;100888.72;20769081;28;20104;-81
2021/07/22 02:45:58;;;;;;;12.27;7.93;;;;;;;15.63;71.52;100889.25;20732467;28;20297;-82
2021/07/22 02:56:01;;;;;;;13.40;8.20;;;;;;;15.67;71.23;100890.03;20697094;28;20065;-80
2021/07/22 03:06:03;;;;;;;14.55;7.70;;;;;;;15.57;71.52;100894.69;20678479;28;20058;-80
2021/07/22 03:16:06;;;;;;;13.32;8.07;;;;;;;15.54;71.57;100893.88;20695807;28;20046;-82
2021/07/22 03:26:29;;;;;;;12.90;8.63;;;;;;;15.56;71.53;100892.91;20678896;28;20042;-82
2021/07/22 03:36:31;;;;;;;13.70;7.40;;;;;;;15.35;72.29;100888.25;20675702;28;20117;-80
2021/07/22 03:46:33;;;;;;;17.33;8.20;;;;;;;15.37;72.52;100891.69;20678087;28;20051;-80
2021/07/22 03:56:35;;;;;;;13.00;7.93;;;;;;;15.30;72.37;100879.59;20694372;28;20050;-81
2021/07/22 04:06:37;;;;;;;17.48;8.38;;;;;;;15.22;72.64;100897.41;20686391;28;20105;-81
2021/07/22 04:16:39;;;;;;;15.02;8.52;;;;;;;15.19;73.30;100892.19;20695588;28;20199;-81
2021/07/22 04:26:41;;;;;;;16.00;8.02;;;;;;;15.25;72.53;100902.59;20669525;28;20059;-82
2021/07/22 04:36:43;;;;;;;14.43;8.13;;;;;;;15.34;72.81;100908.50;20704710;28;20051;-80
2021/07/22 04:46:44;;;;;;;13.05;7.70;;;;;;;15.35;72.91;100919.91;20705121;28;20051;-80
2021/07/22 04:56:47;;;;;;;15.40;8.20;;;;;;;15.83;70.69;100915.06;20691636;28;20053;-80
2021/07/22 05:06:48;;;;;;;13.77;7.75;;;;;;;15.87;70.95;100913.22;20690430;28;20053;-79
2021/07/22 05:16:50;;;;;;;15.07;7.50;;;;;;;15.93;70.40;100913.00;20670142;28;20058;-82
2021/07/22 05:26:53;;;;;;;13.38;7.88;;;;;;;16.07;70.92;100912.59;20687728;28;20459;-82
2021/07/22 05:36:55;;;;;;;15.90;7.80;;;;;;;16.44;69.35;100920.28;20678602;28;20504;-81
2021/07/22 05:46:57;;;;;;;12.50;7.68;;;;;;;16.55;69.62;100927.84;20676668;28;20132;-81
2021/07/22 05:56:58;;;;;;;15.00;7.40;;;;;;;16.83;69.05;100927.84;20663646;28;20645;-79
2021/07/22 06:07:00;;;;;;;12.20;7.38;;;;;;;17.40;68.02;100938.22;20690550;28;20049;-81
2021/07/22 06:17:02;;;;;;;15.00;8.00;;;;;;;17.70;66.27;100941.56;20678043;28;20076;-81
2021/07/22 06:27:04;;;;;;;16.45;9.15;;;;;;;17.80;65.97;100949.19;20693593;28;20051;-81
2021/07/22 06:37:06;;;;;;;16.23;9.20;;;;;;;18.30;64.25;100941.09;20686858;28;20088;-80
2021/07/22 06:47:08;;;;;;;14.48;8.75;;;;;;;18.38;64.25;100931.06;20690142;28;20042;-81
2021/07/22 06:57:10;;;;;;;13.60;7.50;;;;;;;18.94;63.28;100933.25;20692992;28;20050;-81
2021/07/22 07:07:15;;;;;;;13.43;7.90;;;;;;;18.86;62.11;100916.75;20731310;28;20071;-81
2021/07/22 07:17:17;;;;;;;13.20;7.65;;;;;;;19.15;61.72;100911.06;20715975;28;20042;-80
2021/07/22 07:27:19;;;;;;;12.65;7.28;;;;;;;19.58;60.43;100916.31;20768190;28;20050;-80
2021/07/22 07:37:21;;;;;;;11.57;7.32;;;;;;;19.80;60.04;100916.25;20764435;28;20396;-82
2021/07/22 07:47:23;;;;;;;13.43;7.75;;;;;;;19.84;57.90;100924.00;20797680;28;20042;-82
2021/07/22 07:57:25;;;;;;;14.07;7.55;;;;;;;20.17;57.96;100910.03;20762596;28;20081;-83
2021/07/22 08:07:27;;;;;;;10.77;7.18;;;;;;;20.73;57.75;100899.34;20758854;28;20561;-83
2021/07/22 08:17:30;;;;;;;14.38;7.43;;;;;;;20.93;55.24;100897.47;20706834;28;20042;-79
2021/07/22 08:27:32;;;;;;;13.02;7.45;;;;;;;21.24;54.50;100896.78;20675842;28;20050;-79
2021/07/22 08:37:35;;;;;;;12.32;6.97;;;;;;;21.62;54.21;100893.94;20673883;28;20042;-79
2021/07/22 08:47:38;;;;;;;14.68;7.50;;;;;;;21.73;53.64;100897.72;20679395;28;20125;-80
2021/07/22 08:57:40;;;;;;;11.73;7.43;;;;;;;22.21;52.15;100877.31;20659199;28;20047;-79
2021/07/22 09:07:42;;;;;;;12.85;6.40;;;;;;;22.48;52.34;100879.38;20660215;28;20063;-79
2021/07/22 09:17:50;;;;;;;12.93;6.30;;;;;;;22.79;52.25;100875.75;20749493;28;20484;-79
2021/07/22 09:27:59;;;;;;;12.55;6.95;;;;;;;23.22;51.21;100867.88;20767570;28;20106;-79
2021/07/22 09:38:11;;;;;;;13.50;6.32;;;;;;;23.29;49.65;100870.09;20777913;28;20096;-78
2021/07/22 09:48:12;;;;;;;13.88;6.88;;;;;;;23.54;46.87;100866.75;20757592;28;20108;-78
2021/07/22 09:58:14;;;;;;;13.02;6.45;;;;;;;24.11;46.70;100859.66;20749231;28;20054;-79
2021/07/22 10:08:22;;;;;;;13.77;6.43;;;;;;;24.29;46.76;100848.59;20762944;28;20108;-79
2021/07/22 10:18:26;;;;;;;12.27;6.97;;;;;;;24.29;45.08;100837.00;20675285;28;20101;-78
2021/07/22 10:28:28;;;;;;;9.27;5.90;;;;;;;24.67;43.35;100821.09;20664990;28;20113;-79
2021/07/22 10:38:47;;;;;;;10.60;6.57;;;;;;;24.63;44.11;100816.94;20645958;28;20053;-79
2021/07/22 10:48:49;;;;;;;8.55;6.15;;;;;;;24.94;41.79;100804.09;20646063;28;20072;-79
2021/07/22 10:58:58;;;;;;;9.48;6.22;;;;;;;25.07;41.32;100797.81;20646892;28;20112;-79
2021/07/22 11:09:07;;;;;;;9.10;6.00;;;;;;;24.87;40.98;100795.66;20649200;28;20250;-79
2021/07/22 11:19:13;;;;;;;8.77;5.85;;;;;;;25.05;40.54;100783.63;20725163;28;20128;-78
2021/07/22 11:29:17;;;;;;;7.78;5.70;;;;;;;25.52;41.71;100779.44;20758484;28;20443;-80
2021/07/22 11:39:34;;;;;;;11.20;6.00;;;;;;;25.65;42.12;100766.00;20760029;28;20499;-80
2021/07/22 11:49:36;;;;;;;10.57;5.97;;;;;;;25.78;41.52;100750.75;20764452;28;20073;-78
2021/07/22 11:59:58;;;;;;;11.80;6.57;;;;;;;25.84;41.02;100744.94;20764955;28;20384;-78
2021/07/22 12:10:00;;;;;;;10.65;6.20;;;;;;;25.58;39.28;100733.41;20728197;28;20462;-78
2021/07/22 12:20:04;;;;;;;10.15;6.40;;;;;;;25.73;39.57;100730.56;20695004;28;20062;-78
2021/07/22 12:41:31;;;;;;;;;;;;;;;26.02;39.05;100701.59;20679326;28;20046;-78
2021/07/22 12:51:33;;;;;;;9.02;6.43;;;;;;;25.79;38.04;100690.75;20675359;28;20376;-78
2021/07/22 13:01:38;;;;;;;10.93;6.53;;;;;;;25.55;39.31;100685.38;20673231;28;20116;-78
2021/07/22 13:11:40;;;;;;;8.98;6.45;;;;;;;26.28;37.89;100683.50;21008964;23;20060;-72
2021/07/22 13:21:43;;;;;;;14.38;7.35;;;;;;;26.40;37.55;100666.47;20933874;28;20072;-72
2021/07/22 13:31:45;;;;;;;9.82;6.22;;;;;;;26.66;38.60;100661.75;20928895;28;20801;-71
2021/07/22 13:41:47;;;;;;;11.48;6.50;;;;;;;26.71;38.72;100654.19;20914126;28;20099;-71
2021/07/22 13:51:49;;;;;;;11.68;6.70;;;;;;;26.83;37.26;100642.47;20908976;28;20048;-72
2021/07/22 14:01:50;;;;;;;10.68;6.97;;;;;;;26.26;38.78;100642.50;20907229;28;20099;-72
2021/07/22 14:11:52;;;;;;;10.52;7.00;;;;;;;26.77;36.95;100616.06;20906818;28;20081;-72
2021/07/22 14:21:54;;;;;;;10.07;7.35;;;;;;;26.41;37.06;100611.78;20910791;28;20546;-72
2021/07/22 14:31:56;;;;;;;9.63;7.28;;;;;;;26.63;37.57;100608.25;20905772;28;20045;-72
2021/07/22 14:41:57;;;;;;;12.15;6.60;;;;;;;26.79;37.51;100603.38;20902311;28;20094;-72
2021/07/22 14:51:59;;;;;;;11.95;7.45;;;;;;;26.91;35.43;100611.44;20904504;28;20045;-73
2021/07/22 15:02:01;;;;;;;12.77;7.15;;;;;;;26.98;36.19;100601.91;20902567;28;20053;-73
2021/07/22 15:12:04;;;;;;;13.63;7.30;;;;;;;26.95;35.46;100586.03;20905985;28;20045;-72
2021/07/22 15:22:07;;;;;;;13.27;7.95;;;;;;;26.78;35.73;100585.56;20823098;28;20115;-73
2021/07/22 15:32:09;;;;;;;14.57;7.90;;;;;;;26.90;35.92;100585.53;20822646;28;20111;-71
2021/07/22 15:42:11;;;;;;;12.63;8.35;;;;;;;26.78;36.05;100576.63;20818157;28;20046;-72
2021/07/22 15:52:14;;;;;;;10.37;7.30;;;;;;;26.74;36.40;100565.28;20834490;28;20056;-73
2021/07/22 16:02:16;;;;;;;13.73;8.68;;;;;;;26.95;35.54;100565.38;20826386;28;20045;-73
2021/07/22 16:12:19;;;;;;;12.85;8.20;;;;;;;27.08;35.19;100555.38;20857161;28;20409;-73
2021/07/22 16:22:41;;;;;;;13.65;8.68;;;;;;;26.78;35.98;100560.50;20917061;28;20124;-72
2021/07/22 16:32:44;;;;;;;14.13;8.88;;;;;;;26.64;36.32;100550.91;20913187;28;20448;-73
2021/07/22 16:42:45;;;;;;;15.55;9.88;;;;;;;26.45;35.28;100540.78;20914656;28;20081;-73
2021/07/22 16:52:47;;;;;;;17.08;10.15;;;;;;;26.61;35.30;100537.72;20914216;28;20092;-72
2021/07/22 17:02:49;;;;;;;13.23;9.35;;;;;;;26.53;35.89;100548.19;20912601;28;20048;-73
2021/07/22 17:12:51;;;;;;;16.92;10.00;;;;;;;26.54;36.29;100540.06;20884234;28;20059;-73
2021/07/22 17:22:53;;;;;;;14.73;10.35;;;;;;;26.25;36.19;100531.56;20825861;28;20057;-72
2021/07/22 17:32:55;;;;;;;15.93;9.82;;;;;;;25.99;35.27;100530.09;20826867;28;20045;-72
2021/07/22 17:42:57;;;;;;;16.60;9.90;;;;;;;25.88;36.18;100528.25;20828103;28;20049;-72
2021/07/22 17:52:59;;;;;;;18.20;10.25;;;;;;;25.71;36.85;100534.88;20850214;28;20119;-72
2021/07/22 18:03:01;;;;;;;16.30;9.57;;;;;;;25.74;36.76;100526.59;20829437;28;20057;-72
2021/07/22 18:13:04;;;;;;;16.13;10.25;;;;;;;25.61;36.97;100533.88;20851892;28;20060;-72
2021/07/22 18:23:05;;;;;;;18.70;9.93;;;;;;;25.37;37.84;100531.22;20905040;28;20049;-72
2021/07/22 18:33:27;;;;;;;18.05;10.02;;;;;;;24.95;39.16;100529.91;20904889;28;20044;-72
2021/07/22 18:43:29;;;;;;;17.05;10.82;;;;;;;24.63;40.84;100524.22;20905466;28;20044;-72
2021/07/22 18:53:31;;;;;;;13.20;9.40;;;;;;;24.11;43.14;100531.44;20903299;28;20501;-72
2021/07/22 19:03:35;;;;;;;14.68;9.45;;;;;;;23.70;45.97;100534.28;20904248;28;20115;-73
2021/07/22 19:13:38;;;;;;;17.98;10.48;;;;;;;23.39;45.94;100538.16;20870936;28;20132;-72
2021/07/22 19:23:40;;;;;;;17.52;10.20;;;;;;;22.96;47.20;100557.00;20820823;28;20056;-73
2021/07/22 19:33:42;;;;;;;18.05;10.10;;;;;;;22.47;49.51;100557.41;20816580;28;20046;-72
2021/07/22 19:43:44;;;;;;;17.33;9.57;;;;;;;22.02;51.31;100567.28;20819769;28;20053;-72
2021/07/22 19:53:48;;;;;;;15.15;9.82;;;;;;;21.61;52.65;100567.97;20819281;28;20045;-72
2021/07/22 20:03:50;;;;;;;17.50;9.97;;;;;;;21.29;53.46;100582.25;20818604;28;20104;-72
2021/07/22 20:13:52;;;;;;;15.50;10.00;;;;;;;21.18;53.39;100586.38;20851648;28;20111;-72
2021/07/22 20:23:54;;;;;;;16.17;10.43;;;;;;;20.94;55.50;100609.06;20900653;28;20071;-72
2021/07/22 20:33:56;;;;;;;16.77;9.30;;;;;;;20.54;56.23;100605.03;20899747;28;20478;-72
2021/07/22 20:43:58;;;;;;;15.48;9.65;;;;;;;20.55;56.47;100589.00;20900279;28;20103;-72
2021/07/22 20:54:01;;;;;;;18.23;8.90;;;;;;;20.44;57.17;100594.88;20931007;28;20045;-72
2021/07/22 21:04:04;;;;;;;18.90;9.15;;;;;;;20.34;57.60;100603.41;20996793;28;20053;-72
2021/07/22 21:14:06;;;;;;;15.25;8.70;;;;;;;20.03;58.68;100610.34;20958283;28;20049;-72
2021/07/22 21:24:08;;;;;;;12.98;7.88;;;;;;;19.73;60.49;100597.66;20903307;28;20479;-71
2021/07/22 21:34:09;;;;;;;15.27;7.93;;;;;;;19.58;60.86;100609.03;20912418;28;20094;-72
2021/07/22 21:44:11;;;;;;;14.77;8.20;;;;;;;19.43;61.30;100605.34;20919937;28;20475;-71
2021/07/22 21:54:16;;;;;;;13.73;7.43;;;;;;;19.12;62.62;100605.13;20916115;28;20049;-72
2021/07/22 22:04:18;;;;;;;16.88;8.60;;;;;;;18.92;63.94;100608.69;20909259;23;20045;-72
2021/07/22 22:14:19;;;;;;;14.18;7.63;;;;;;;18.75;64.68;100606.00;20904829;28;20445;-72
2021/07/22 22:24:21;;;;;;;15.18;9.60;;;;;;;18.82;64.95;100602.09;20904269;28;20044;-72
2021/07/22 22:34:23;;;;;;;14.10;7.85;;;;;;;18.73;66.66;100603.38;20904806;28;20105;-72
2021/07/22 22:44:25;;;;;;;14.13;8.00;;;;;;;18.70;66.44;100599.09;20905277;28;20048;-72
2021/07/22 22:54:27;;;;;;;13.75;7.35;;;;;;;18.60;66.21;100603.06;20905119;28;20099;-73
2021/07/22 23:04:28;;;;;;;16.48;8.25;;;;;;;18.44;68.04;100596.72;20903829;28;20119;-72
2021/07/22 23:14:30;;;;;;;15.57;8.20;;;;;;;18.24;68.21;100594.13;20903230;28;20045;-72
2021/07/22 23:24:32;;;;;;;15.95;8.73;;;;;;;18.11;68.76;100594.69;20902870;28;20045;-73
2021/07/22 23:34:34;;;;;;;16.88;8.90;;;;;;;17.83;69.59;100595.00;20917425;28;20053;-72
2021/07/22 23:44:36;;;;;;;11.50;7.50;;;;;;;17.42;71.44;100599.31;20900743;28;20053;-72
2021/07/22 23:54:38;;;;;;;13.02;8.48;;;;;;;17.35;71.45;100592.56;20901473;28;20049;-73
